• Join FlightAware (Why Join?)
  • Login
  • US Flag 
06:26AM EDT


 

Airport Tracker/Info


-or-


 

Live Flight TrackerFlight Track Log ✈ UAL906 ✈ 06-Jun-2013 ✈ EDDF / FRA - KORD

Flight Track Log - Related Links

Times and Time Zones

All times are in EDT time to prevent confusion due to time zone crossing. See the UAL906 flight status page for this flight to view local times or setup timezone preferences in your user account.

Time Position Orientation Groundspeed Altitude Reporting Facility
EDT Latitude Longitude Course Direction KTS MPH feet Rate Location/Type
06:49AM 50.0480 8.5840 160° South 10 12  Level FlightAware
06:50AM 50.0480 8.5830 270° West 11 13  Level FlightAware
06:51AM 50.0490 8.5830 360° North 12 14  Level FlightAware
06:51AM 50.0490 8.5840 90° East 11 13  Level FlightAware
06:54AM 50.1669 8.2551 300° West  Level FlightAware Approximate
06:55AM 50.2325 8.1017 308° West  Level FlightAware Approximate
06:55AM 50.0490 8.5830 308° West 20 23  Level FlightAware
06:56AM 50.0480 8.5810 232° Southwest 28 32  Level FlightAware
06:56AM 50.0480 8.5800 270° West 29 33  Level FlightAware
06:56AM 50.0470 8.5790 213° Southwest 28 32  Level FlightAware
06:57AM 50.0460 8.5800 147° Southeast 26 30  Level FlightAware
06:57AM 50.0450 8.5780 232° Southwest 15 17  Level FlightAware
06:58AM 50.0440 8.5750 243° Southwest 18 21  Level FlightAware
06:58AM 50.0430 8.5720 243° Southwest 20 23  Level FlightAware
06:59AM 50.0430 8.5680 270° West 18 21  Level FlightAware
06:59AM 50.0420 8.5660 232° Southwest 21 24  Level FlightAware
06:59AM 50.0410 8.5620 249° West 24 28  Level FlightAware
07:00AM 50.0400 8.5590 243° Southwest 20 23  Level FlightAware
07:00AM 50.0390 8.5550 249° West 19 22  Level FlightAware
07:01AM 50.0380 8.5510 249° West 20 23 60 Level FlightAware
07:01AM 50.0380 8.5470 270° West 21 24 60 Level FlightAware
07:02AM 50.0370 8.5440 243° Southwest 19 22 60 Level FlightAware
07:02AM 50.0360 8.5420 232° Southwest 17 20 60 Level FlightAware
07:02AM 50.0360 8.5390 270° West 17 20 60 Level FlightAware
07:03AM 50.0350 8.5360 243° Southwest 32 37 60 Level FlightAware
07:03AM 50.0340 8.5340 232° Southwest 28 32 60 Level FlightAware
07:04AM 50.0330 8.5360 128° Southeast 20 23 60 Level FlightAware
07:06AM 50.1400 8.3234 304° West  Level FlightAware Approximate
07:06AM 50.0330 8.5370 304° West 27 31  Level FlightAware
07:06AM 50.0360 8.5490 69° East 120 138 420 Level FlightAware
07:07AM 50.0430 8.5770 69° East 177 204 400 1,200 Climbing FlightAware
07:07AM 50.0470 8.5940 70° East 185 213 800 2,280 Climbing FlightAware
07:07AM 50.0550 8.6300 71° East 187 215 2,000 2,160 Climbing FlightAware
07:08AM 50.0630 8.6670 71° East 188 216 2,900 1,740 Climbing FlightAware
07:08AM 50.0680 8.6890 70° East 189 217 3,400 1,140 Climbing FlightAware
07:09AM 50.0850 8.7210 50° Northeast 220 253 3,800 1,140 Climbing FlightAware
07:09AM 50.1140 8.7380 21° North 245 282 4,500 1,440 Climbing FlightAware
07:10AM 50.1370 8.7540 24° Northeast 260 299 5,100 2,220 Climbing FlightAware
07:10AM 50.1660 8.7730 23° Northeast 261 300 6,300 2,040 Climbing FlightAware
07:10AM 50.1800 8.7780 13° North 256 295 6,700 1,500 Climbing FlightAware
07:11AM 50.2190 8.7490 335° Northwest 274 315 7,900 2,340 Climbing FlightAware
07:11AM 50.2470 8.6810 303° West 289 333 9,200 2,280 Climbing FlightAware
07:12AM 50.2820 8.5980 303° West 307 353 10,600 1,500 Climbing FlightAware
07:13AM 50.3150 8.5200 304° West 335 386 11,400 1,080 Climbing FlightAware
07:14AM 50.3460 8.4270 298° West 370 426 12,100 1,440 Climbing FlightAware
07:14AM 50.3760 8.3040 291° West 382 440 13,600 2,040 Climbing FlightAware
07:15AM 50.4010 8.2000 291° West 380 437 15,200 1,980 Climbing FlightAware
07:16AM 50.4260 8.0920 290° West 393 452 16,300 1,620 Climbing FlightAware
07:16AM 50.4550 7.9730 291° West 402 463 17,500 1,560 Climbing FlightAware
07:17AM 50.4790 7.8690 290° West 411 473 18,500 1,440 Climbing FlightAware
07:18AM 50.5060 7.7540 290° West 417 480 19,500 1,500 Climbing FlightAware
07:19AM 50.5350 7.6290 290° West 424 488 20,600 1,380 Climbing FlightAware
07:19AM 50.5750 7.5190 300° West 428 493 21,500 1,320 Climbing FlightAware
07:20AM 50.6700 7.4150 325° Northwest 434 499 22,900 1,380 Climbing FlightAware
07:21AM 50.7360 7.3470 327° Northwest 439 505 23,800 1,260 Climbing FlightAware
07:22AM 50.8110 7.2640 325° Northwest 447 514 24,700 1,260 Climbing FlightAware
07:23AM 50.8950 7.1210 313° West 451 519 25,900 1,200 Climbing FlightAware
07:23AM 50.9540 7.0120 311° West 456 525 26,700 1,080 Climbing FlightAware
07:24AM 51.0080 6.9120 311° West 466 536 27,400 1,080 Climbing FlightAware
07:25AM 51.0660 6.8050 311° West 471 542 28,200 1,140 Climbing FlightAware
07:25AM 51.1110 6.7220 311° West 473 544 28,800 1,080 Climbing FlightAware
07:26AM 51.1780 6.5980 311° West 476 548 29,700 960 Climbing FlightAware
07:27AM 51.2360 6.4900 311° West 480 552 30,300 900 Climbing FlightAware
07:27AM 51.3010 6.3660 310° West 485 558 31,000 1,140 Climbing FlightAware
07:28AM 51.3650 6.2460 311° West 478 550 32,000 1,260 Climbing FlightAware
07:29AM 51.4210 6.1400 310° West 476 548 32,800 1,140 Climbing FlightAware
07:29AM 51.4810 6.0250 310° West 472 543 33,600 1,140 Climbing FlightAware
07:30AM 51.5430 5.9070 310° West 465 535 34,500 960 Climbing FlightAware
07:31AM 51.5990 5.7990 310° West 464 534 35,000 660 Climbing FlightAware
07:32AM 51.6560 5.6890 310° West 464 534 35,500 600 Climbing FlightAware
07:32AM 51.7042 5.5888 310° West 470 541 35,800 720 Climbing FlightAware UK
07:32AM 51.7120 5.5800 310° West 462 532 36,000 480 Climbing FlightAware
07:33AM 51.7369 5.5264 310° West 470 541 36,000  Level FlightAware UK
07:33AM 51.7650 5.4780 310° West 463 533 36,000 -180 Level FlightAware
07:33AM 51.8037 5.4002 310° West 470 541 35,900  Descending FlightAware UK
07:34AM 51.8240 5.3630 310° West 463 533 36,000 300 Climbing FlightAware
07:34AM 51.8284 5.3523 310° West 470 541 36,000  Level FlightAware UK
07:34AM 51.8688 5.2720 310° West 468 539 36,000  Level FlightAware UK
07:34AM 51.8810 5.2500 310° West 464 534 36,000 -300 Level FlightAware
07:35AM 51.9032 5.2092 310° West 470 541 35,900  Descending FlightAware UK
07:35AM 51.9370 5.1410 310° West 464 534 36,000 60 Climbing FlightAware
07:36AM 51.9960 5.0230 309° West 463 533 36,000  Level FlightAware
07:36AM 52.0408 4.9347 309° West 470 541 36,000  Level FlightAware UK
07:36AM 52.0530 4.9100 309° West 463 533 36,000  Level FlightAware
07:37AM 52.1080 4.7990 309° West 463 533 36,000  Level FlightAware
07:37AM 52.1134 4.7884 309° West 472 543 36,000  Level FlightAware UK
07:37AM 52.1272 4.7539 309° West 472 543 36,000  Level FlightAware UK
07:38AM 52.1670 4.6810 309° West 462 532 36,000  Level FlightAware
07:38AM 52.2107 4.5943 309° West 470 541 36,000  Level FlightAware UK
07:39AM 52.2230 4.5690 309° West 463 533 36,000  Level FlightAware
07:39AM 52.2595 4.4975 309° West 472 543 36,000  Level FlightAware UK
07:39AM 52.2780 4.4570 309° West 463 533 36,000  Level FlightAware
07:39AM 52.2834 4.4484 309° West 472 543 36,000  Level FlightAware UK
07:40AM 52.3330 4.3450 309° West 462 532 36,000  Level FlightAware
07:41AM 52.3900 4.2280 309° West 461 531 36,000  Level FlightAware
07:41AM 52.4410 4.1230 309° West 462 532 36,000  Level FlightAware
07:42AM 52.5000 4.0020 309° West 461 531 36,000  Level FlightAware
07:42AM 52.5303 3.9408 309° West 470 541 36,000  Level FlightAware UK
07:43AM 52.5590 3.8800 309° West 462 532 36,000  Level FlightAware
07:43AM 52.5936 3.8089 309° West 474 545 36,000  Level FlightAware UK
07:43AM 52.6140 3.7650 309° West 462 532 36,000  Level FlightAware
07:44AM 52.6670 3.6550 308° West 461 531 36,000 -120 Level FlightAware
07:45AM 52.7123 3.5609 308° West 474 545 35,900  Descending FlightAware UK
07:45AM 52.7240 3.5340 308° West 460 529 36,000  Climbing FlightAware
07:45AM 52.7514 3.4781 308° West 474 545 35,900  Descending FlightAware UK
07:46AM 52.7827 3.4124 308° West 474 545 36,000 240 Climbing FlightAware UK
07:46AM 52.7800 3.4170 308° West 460 529 36,000 -240 Level FlightAware
07:46AM 52.8219 3.3296 308° West 474 545 35,900  Descending FlightAware UK
07:46AM 52.8340 3.3030 308° West 459 528 36,000 120 Climbing FlightAware
07:47AM 52.8840 3.1960 308° West 459 528 36,000  Level FlightAware
07:48AM 52.9420 3.0720 308° West 457 526 36,000  Level FlightAware
07:48AM 52.9960 2.9560 308° West 457 526 36,000 -120 Level FlightAware
07:49AM 53.0387 2.8647 308° West 470 541 35,900  Descending FlightAware UK
07:49AM 53.0470 2.8370 308° West 454 522 36,000 120 Climbing FlightAware
07:49AM 53.0677 2.7490 308° West 470 541 36,000  Level FlightAware UK
07:50AM 53.0770 2.7090 308° West 455 524 36,000 -180 Level FlightAware
07:50AM 53.0954 2.6321 308° West 474 545 35,900  Descending FlightAware UK
07:50AM 53.1150 2.5600 308° West 455 524 36,000  Climbing FlightAware
07:51AM 53.1362 2.4778 308° West 472 543 35,900  Descending FlightAware UK
07:51AM 53.1450 2.4430 293° West 454 522 36,000  Climbing FlightAware
07:51AM 53.1509 2.4201 293° West 472 543 35,900 -360 Descending FlightAware UK
07:51AM 53.1605 2.3813 293° West 472 543 35,900 120 Level FlightAware UK
07:52AM 53.1782 2.3035 291° West 472 543 36,000 180 Climbing FlightAware UK
07:52AM 53.1810 2.2890 291° West 454 522 36,000 -180 Level FlightAware
07:52AM 53.2051 2.1862 291° West 470 541 35,900  Descending FlightAware UK
07:52AM 53.2110 2.1610 291° West 454 522 36,000  Climbing FlightAware
07:53AM 53.2275 2.0886 291° West 470 541 35,900  Descending FlightAware UK
07:53AM 53.2460 2.0090 291° West 455 524 36,000 120 Climbing FlightAware
07:54AM 53.2587 1.9512 291° West 470 541 36,000  Level FlightAware UK
07:54AM 53.2720 1.8921 291° West 470 541 36,000  Level FlightAware UK
07:54AM 53.2750 1.8800 291° West 455 524 36,000  Level FlightAware
07:54AM 53.2940 1.7935 291° West 472 543 36,000  Level FlightAware UK
07:55AM 53.3050 1.7470 291° West 456 525 36,000  Level FlightAware
07:55AM 53.3203 1.6756 291° West 470 541 36,000  Level FlightAware UK
07:55AM 53.3380 1.5980 291° West 456 525 36,000  Level FlightAware
07:56AM 53.3510 1.5371 291° West 472 543 36,000  Level FlightAware UK
07:56AM 53.3641 1.4776 290° West 472 543 36,000  Level FlightAware UK
07:56AM 53.3670 1.4640 290° West 456 525 36,000  Level FlightAware
07:56AM 53.3814 1.3986 290° West 474 545 36,000  Level FlightAware UK
07:57AM 53.3970 1.3250 290° West 457 526 36,000 -180 Level FlightAware
07:57AM 53.4118 1.2594 290° West 472 543 35,900 -180 Descending FlightAware UK
07:57AM 53.4248 1.1997 290° West 472 543 35,900 120 Level FlightAware UK
07:58AM 53.4410 1.1260 290° West 457 526 36,000 60 Climbing FlightAware
07:58AM 53.4678 1.0009 290° West 474 545 36,000  Level FlightAware UK
07:58AM 53.4680 0.9970 290° West 457 526 36,000 -300 Level FlightAware
07:59AM 53.4848 0.9210 290° West 474 545 35,900  Descending FlightAware UK
07:59AM 53.4960 0.8650 290° West 456 525 36,000  Climbing FlightAware
08:00AM 53.5231 0.7409 290° West 472 543 35,900  Descending FlightAware UK
08:00AM 53.5280 0.7170 290° West 457 526 36,000  Climbing FlightAware
08:00AM 53.5400 0.6616 290° West 474 545 35,900  Descending FlightAware UK
08:00AM 53.5528 0.6015 290° West 474 545 36,000 240 Climbing FlightAware UK
08:00AM 53.5540 0.5930 290° West 457 526 36,000  Level FlightAware
08:01AM 53.5880 0.4340 290° West 457 526 36,000  Level FlightAware
08:01AM 53.6006 0.3711 289° West 458 527 36,000 -180 Level FlightAware ADS-B
08:02AM 53.6195 0.2808 289° West 474 545 35,900  Descending FlightAware UK
08:02AM 53.6272 0.2430 289° West 458 527 36,000 120 Climbing FlightAware ADS-B
08:03AM 53.6443 0.1606 289° West 474 545 36,000  Level FlightAware UK
08:03AM 53.6489 0.1376 289° West 458 527 36,000  Level FlightAware ADS-B
08:03AM 53.6610 0.0800 289° West 474 545 36,000  Level FlightAware UK
08:03AM 53.6698 0.0356 289° West 458 527 36,000  Level FlightAware ADS-B
08:04AM 53.6906 -0.0552 291° West 458 527 36,000  Level FlightAware ADS-B
08:05AM 53.7839 -0.2042 291° West 472 543 36,000  Level FlightAware UK
08:05AM 53.8157 -0.2404 326° Northwest 472 543 36,000  Level FlightAware UK
08:05AM 53.8140 -0.2380 326° Northwest 462 532 36,000  Level FlightAware
08:05AM 53.8796 -0.3123 326° Northwest 472 543 36,000  Level FlightAware UK
08:06AM 53.8810 -0.3160 326° Northwest 461 531 36,000  Level FlightAware
08:06AM 53.9590 -0.4200 322° Northwest 462 532 36,000  Level FlightAware
08:07AM 53.9994 -0.4737 322° Northwest 472 543 36,000  Level FlightAware UK
08:07AM 54.0230 -0.5060 322° Northwest 462 532 36,000  Level FlightAware
08:08AM 54.0930 -0.5990 322° Northwest 462 532 36,000  Level FlightAware
08:08AM 54.1397 -0.6621 322° Northwest 472 543 36,000  Level FlightAware UK
08:08AM 54.1660 -0.6970 322° Northwest 463 533 36,000  Level FlightAware
08:08AM 54.1701 -0.7025 322° Northwest 474 545 36,000  Level FlightAware UK
08:09AM 54.2004 -0.7429 322° Northwest 472 543 36,000  Level FlightAware UK
08:09AM 54.2306 -0.7837 322° Northwest 474 545 36,000  Level FlightAware UK
08:09AM 54.2330 -0.7860 322° Northwest 464 534 36,000  Level FlightAware
08:09AM 54.2806 -0.8512 322° Northwest 472 543 36,000 -120 Level FlightAware UK
08:10AM 54.3209 -0.9057 322° Northwest 472 543 35,900  Descending FlightAware UK
08:10AM 54.3330 -0.9220 322° Northwest 463 533 36,000 120 Climbing FlightAware
08:10AM 54.3740 -0.9760 323° Northwest 463 533 36,000 -180 Level FlightAware
08:11AM 54.4117 -1.0278 323° Northwest 474 545 35,900  Descending FlightAware UK
08:11AM 54.4290 -1.0520 323° Northwest 463 533 36,000 60 Climbing FlightAware
08:12AM 54.5160 -1.1690 322° Northwest 456 525 36,000  Level FlightAware
08:13AM 54.5880 -1.2670 322° Northwest 461 531 36,000  Level FlightAware
08:13AM 54.6600 -1.3640 322° Northwest 461 531 36,000 -120 Level FlightAware
08:14AM 54.6925 -1.4092 322° Northwest 474 545 35,900 -180 Descending FlightAware UK
08:14AM 54.7229 -1.4506 322° Northwest 472 543 35,900 180 Level FlightAware UK
08:14AM 54.7350 -1.4670 322° Northwest 461 531 36,000  Climbing FlightAware
08:14AM 54.7726 -1.5188 322° Northwest 472 543 35,900  Descending FlightAware UK
08:15AM 54.7960 -1.5510 322° Northwest 461 531 36,000 120 Climbing FlightAware
08:15AM 54.8294 -1.6072 322° Northwest 472 543 36,000  Level FlightAware UK
08:15AM 54.8560 -1.6630 322° Northwest 458 527 36,000  Level FlightAware
08:16AM 54.9040 -1.7840 322° Northwest 456 525 36,000 -180 Level FlightAware
08:16AM 54.9112 -1.8014 322° Northwest 472 543 35,900 -420 Descending FlightAware UK
08:16AM 54.9256 -1.8375 322° Northwest 472 543 35,900  Level FlightAware UK
08:17AM 54.9470 -1.8919 304° West 470 541 35,900 180 Level FlightAware UK
08:17AM 54.9580 -1.9200 304° West 457 526 36,000 180 Climbing FlightAware
08:17AM 54.9823 -1.9830 304° West 472 543 36,000 -180 Level FlightAware UK
08:17AM 55.0035 -2.0379 304° West 472 543 35,900  Descending FlightAware UK
08:18AM 55.0090 -2.0520 304° West 457 526 36,000  Climbing FlightAware
08:18AM 55.0597 -2.1837 304° West 470 541 35,900  Descending FlightAware UK
08:18AM 55.0580 -2.1800 304° West 457 526 36,000 120 Climbing FlightAware
08:19AM 55.1040 -2.3000 304° West 457 526 36,000  Level FlightAware
08:19AM 55.1508 -2.4213 304° West 472 543 36,000  Level FlightAware UK
08:20AM 55.1480 -2.4140 304° West 453 521 36,000  Level FlightAware
08:20AM 55.1960 -2.5410 304° West 458 527 36,000 -180 Level FlightAware
08:20AM 55.2067 -2.5690 304° West 472 543 35,900  Descending FlightAware UK
08:21AM 55.2347 -2.6429 304° West 472 543 36,000 120 Climbing FlightAware UK
08:21AM 55.2560 -2.6980 304° West 457 526 36,000 -180 Level FlightAware
08:21AM 55.2835 -2.7725 304° West 472 543 35,900  Descending FlightAware UK
08:22AM 55.3050 -2.8300 304° West 457 526 36,000 120 Climbing FlightAware
08:22AM 55.3389 -2.9204 304° West 472 543 36,000  Level FlightAware UK
08:22AM 55.3490 -2.9470 304° West 457 526 36,000  Level FlightAware
08:23AM 55.3805 -3.0322 304° West 472 543 36,000  Level FlightAware UK
08:23AM 55.4013 -3.0881 303° West 472 543 36,000  Level FlightAware UK
08:23AM 55.4000 -3.0830 303° West 457 526 36,000  Level FlightAware
08:23AM 55.4221 -3.1441 303° West 472 543 36,000  Level FlightAware UK
08:24AM 55.4426 -3.1994 303° West 472 543 36,000  Level FlightAware UK
08:24AM 55.4430 -3.2010 303° West 453 521 36,000  Level FlightAware
08:24AM 55.4633 -3.2555 303° West 472 543 36,000  Level FlightAware UK
08:24AM 55.4910 -3.3301 303° West 472 543 36,000  Level FlightAware UK
08:24AM 55.4960 -3.3430 303° West 457 526 36,000  Level FlightAware
08:25AM 55.5379 -3.4628 303° West 470 541 36,000  Level FlightAware UK
08:25AM 55.5430 -3.4790 303° West 457 526 36,000  Level FlightAware
08:26AM 55.5831 -3.5960 303° West 472 543 36,000  Level FlightAware UK
08:26AM 55.6027 -3.6535 301° West 472 543 36,000  Level FlightAware UK
08:26AM 55.6010 -3.6490 301° West 457 526 36,000 -300 Level FlightAware
08:26AM 55.6289 -3.7302 301° West 472 543 35,900  Descending FlightAware UK
08:27AM 55.6460 -3.7790 301° West 457 526 36,000 120 Climbing FlightAware
08:27AM 55.6748 -3.8639 301° West 474 545 36,000  Level FlightAware UK
08:28AM 55.6950 -3.9220 301° West 457 526 36,000  Level FlightAware
08:28AM 55.7410 -4.0590 301° West 457 526 36,000 -120 Level FlightAware
08:28AM 55.7592 -4.1133 301° West 474 545 35,900  Descending FlightAware UK
08:29AM 55.7840 -4.1870 301° West 456 525 36,000  Climbing FlightAware
08:29AM 55.8239 -4.3058 301° West 474 545 35,900  Descending FlightAware UK
08:29AM 55.8100 -4.2630 301° West 456 525 36,000  Climbing FlightAware
08:30AM 55.8558 -4.4022 301° West 472 543 35,900 -120 Descending FlightAware UK
08:30AM 55.8798 -4.4803 299° West 472 543 35,900 120 Level FlightAware UK
08:31AM 55.8890 -4.5140 299° West 448 516 36,000 120 Climbing FlightAware
08:31AM 55.9124 -4.6004 299° West 470 541 36,000  Level FlightAware UK
08:31AM 55.9283 -4.6608 295° West 470 541 36,000  Level FlightAware UK
08:31AM 55.9260 -4.6520 295° West 450 518 36,000 -360 Level FlightAware
08:32AM 55.9445 -4.7209 295° West 470 541 35,900 -180 Descending FlightAware UK
08:32AM 55.9606 -4.7812 296° West 470 541 35,900 180 Level FlightAware UK
08:32AM 55.9660 -4.8020 296° West 450 518 36,000 240 Climbing FlightAware
08:32AM 55.9819 -4.8616 296° West 470 541 36,000 -180 Level FlightAware UK
08:33AM 55.9979 -4.9219 295° West 468 539 35,900  Descending FlightAware UK
08:33AM 55.9980 -4.9230 295° West 451 519 36,000 300 Climbing FlightAware
08:33AM 56.0138 -4.9816 295° West 470 541 36,000  Level FlightAware UK
08:33AM 56.0300 -5.0427 295° West 472 543 36,000  Level FlightAware UK
08:33AM 56.0380 -5.0740 295° West 450 518 36,000 -240 Level FlightAware
08:34AM 56.0564 -5.1437 295° West 470 541 35,900  Descending FlightAware UK
08:34AM 56.0721 -5.2037 295° West 470 541 36,000 240 Climbing FlightAware UK
08:34AM 56.0740 -5.2110 295° West 451 519 36,000  Level FlightAware
08:34AM 56.0879 -5.2645 295° West 470 541 36,000  Level FlightAware UK
08:35AM 56.1037 -5.3252 295° West 470 541 36,000  Level FlightAware UK
08:35AM 56.1080 -5.3430 295° West 451 519 36,000  Level FlightAware
08:35AM 56.1301 -5.4267 295° West 470 541 36,000  Level FlightAware UK
08:35AM 56.1480 -5.4950 295° West 448 516 36,000 -180 Level FlightAware
08:36AM 56.1669 -5.5690 295° West 472 543 35,900  Descending FlightAware UK
08:36AM 56.1826 -5.6300 295° West 472 543 36,000 240 Climbing FlightAware UK
08:36AM 56.1880 -5.6500 295° West 449 517 36,000  Level FlightAware
08:37AM 56.2086 -5.7320 295° West 470 541 36,000  Level FlightAware UK
08:37AM 56.2170 -5.7670 295° West 448 516 36,000  Level FlightAware
08:37AM 56.2242 -5.7932 295° West 470 541 36,000  Level FlightAware UK
08:37AM 56.2345 -5.8341 295° West 470 541 36,000  Level FlightAware UK
08:37AM 56.2502 -5.8954 295° West 470 541 36,000  Level FlightAware UK
08:38AM 56.2610 -5.9400 295° West 449 517 36,000  Level FlightAware
08:38AM 56.2761 -5.9977 295° West 470 541 36,000  Level FlightAware UK
08:38AM 56.2967 -6.0798 294° West 470 541 36,000  Level FlightAware UK
08:38AM 56.2950 -6.0740 294° West 449 517 36,000  Level FlightAware
08:39AM 56.3123 -6.1413 294° West 468 539 36,000  Level FlightAware UK
08:39AM 56.3277 -6.2030 294° West 466 536 36,000 240 Level FlightAware UK
08:39AM 56.3300 -6.2140 294° West 448 516 36,100 480 Climbing FlightAware
08:39AM 56.3480 -6.2846 294° West 464 534 36,200 300 Climbing FlightAware UK
08:40AM 56.3633 -6.3461 294° West 462 532 36,300 600 Climbing FlightAware UK
08:40AM 56.3640 -6.3500 294° West 448 516 36,400 480 Climbing FlightAware
08:40AM 56.3837 -6.4283 294° West 462 532 36,500 300 Climbing FlightAware UK
08:40AM 56.3989 -6.4902 294° West 466 536 36,600 480 Climbing FlightAware UK
08:40AM 56.4030 -6.5050 294° West 450 518 36,700 480 Climbing FlightAware
08:41AM 56.4194 -6.5730 294° West 466 536 36,800 120 Climbing FlightAware UK
08:41AM 56.4348 -6.6353 294° West 466 536 36,800 240 Level FlightAware UK
08:41AM 56.4370 -6.6470 294° West 453 521 36,900 300 Climbing FlightAware
08:41AM 56.4503 -6.6981 294° West 468 539 36,900 180 Level FlightAware UK
08:42AM 56.4630 -6.7510 294° West 457 526 37,000 300 Climbing FlightAware
08:42AM 56.4656 -6.7615 294° West 468 539 37,000  Level FlightAware UK
08:42AM 56.4809 -6.8249 294° West 470 541 37,000  Level FlightAware UK
08:42AM 56.4950 -6.8902 291° West 472 543 37,000  Level FlightAware UK
08:42AM 56.4950 -6.8930 291° West 463 533 37,000  Level FlightAware
08:42AM 56.5075 -6.9556 291° West 474 545 37,000  Level FlightAware UK
08:43AM 56.5193 -7.0218 288° West 474 545 37,000  Level FlightAware UK
08:43AM 56.5220 -7.0390 288° West 460 529 37,000 -300 Level FlightAware
08:43AM 56.5346 -7.1105 288° West 474 545 36,900 -180 Descending FlightAware UK
08:43AM 56.5461 -7.1769 287° West 474 545 36,900 180 Level FlightAware UK
08:44AM 56.5510 -7.2070 287° West 460 529 37,000  Climbing FlightAware
08:44AM 56.5616 -7.2654 287° West 474 545 36,900 -240 Descending FlightAware UK
08:44AM 56.5730 -7.3320 287° West 474 545 36,900 180 Level FlightAware UK
08:44AM 56.5800 -7.3720 287° West 460 529 37,000  Climbing FlightAware
08:45AM 56.5922 -7.4428 287° West 472 543 36,900 -180 Descending FlightAware UK
08:45AM 56.6036 -7.5095 287° West 472 543 36,900  Level FlightAware UK
08:45AM 56.6148 -7.5755 287° West 472 543 36,900 300 Level FlightAware UK
08:45AM 56.6150 -7.5770 287° West 462 532 37,000  Climbing FlightAware
08:46AM 56.6261 -7.6424 287° West 474 545 36,900 -180 Descending FlightAware UK
08:46AM 56.6375 -7.7093 287° West 474 545 36,900 240 Level FlightAware UK
08:46AM 56.6400 -7.7230 287° West 463 533 37,000  Climbing FlightAware
08:46AM 56.6526 -7.7986 287° West 472 543 36,900 -180 Descending FlightAware UK
08:47AM 56.6640 -7.8657 287° West 472 543 36,900 240 Level FlightAware UK
08:47AM 56.6650 -7.8720 287° West 464 534 37,000 240 Climbing FlightAware
08:47AM 56.6789 -7.9553 287° West 472 543 37,000 -180 Level FlightAware UK
08:47AM 56.6900 -8.0227 287° West 472 543 36,900  Descending FlightAware UK
08:47AM 56.6930 -8.0400 287° West 465 535 37,000 240 Climbing FlightAware
08:48AM 56.7050 -8.1126 287° West 476 548 37,000 -180 Level FlightAware UK
08:48AM 56.7161 -8.1803 287° West 476 548 36,900  Descending FlightAware UK
08:48AM 56.7180 -8.1930 287° West 467 537 37,000  Climbing FlightAware
08:48AM 56.7310 -8.2705 287° West 476 548 36,900 -180 Descending FlightAware UK
08:49AM 56.7421 -8.3382 287° West 476 548 36,900 240 Level FlightAware UK
08:49AM 56.7440 -8.3490 287° West 468 539 37,000  Climbing FlightAware
08:49AM 56.7568 -8.4285 287° West 476 548 36,900  Descending FlightAware UK
08:49AM 56.7680 -8.5000 287° West 467 537 37,000 120 Climbing FlightAware
08:50AM 56.7787 -8.5642 287° West 476 548 37,000 -180 Level FlightAware UK
08:50AM 56.7896 -8.6322 286° West 474 545 36,900  Descending FlightAware UK
08:50AM 56.7920 -8.6490 286° West 467 537 37,000  Climbing FlightAware
08:50AM 56.8076 -8.7455 286° West 474 545 36,900  Descending FlightAware UK
08:51AM 56.8183 -8.8136 286° West 476 548 37,000 240 Climbing FlightAware UK
08:51AM 56.8190 -8.8180 286° West 468 539 37,000 -360 Level FlightAware
08:51AM 56.8292 -8.8817 286° West 476 548 36,900 -240 Descending FlightAware UK
08:51AM 56.8399 -8.9491 286° West 476 548 36,900 180 Level FlightAware UK
08:52AM 56.8470 -8.9960 286° West 469 540 37,000 60 Climbing FlightAware
08:52AM 56.8780 -9.1930 286° West 469 540 37,000  Level FlightAware
08:53AM 56.9050 -9.3680 286° West 470 541 37,000  Level FlightAware
08:54AM 56.9280 -9.5220 285° West 468 539 37,000  Level FlightAware
08:55AM 56.9520 -9.6750 286° West 467 537 37,000  Level FlightAware
08:55AM 56.9710 -9.8040 285° West 466 536 37,000  Level FlightAware
08:56AM 57.0010 -9.9940 286° West 465 535 37,000  Level FlightAware
08:57AM 57.0430 -10.1820 292° West 466 536 37,000  Level FlightAware
08:58AM 57.1100 -10.4380 296° West 469 540 37,000  Level FlightAware
08:59AM 57.1500 -10.6040 294° West 469 540 37,000  Level FlightAware
08:59AM 57.1900 -10.7660 295° West 470 541 37,000  Level FlightAware
09:00AM 57.2180 -10.8810 294° West 470 541 37,000  Level FlightAware
09:01AM 57.2610 -11.0580 294° West 471 542 37,000  Level FlightAware
09:02AM 57.3060 -11.2190 297° West 468 539 37,000  Level FlightAware
09:02AM 57.3490 -11.3600 300° West 472 543 37,000  Level FlightAware
09:03AM 57.3900 -11.5230 295° West 473 544 37,000  Level FlightAware
09:04AM 57.4310 -11.7010 293° West 473 544 37,000  Level FlightAware
09:05AM 57.4570 -11.8160 293° West 473 544 37,000  Level FlightAware
09:05AM 57.4880 -11.9530 293° West 473 544 37,000  Level FlightAware
09:06AM 57.5170 -12.0800 293° West 473 544 37,000  Level FlightAware
09:07AM 57.5800 -12.3450 294° West 473 544 37,000  Level FlightAware
09:08AM 57.6260 -12.5530 293° West 474 545 37,000  Level FlightAware
09:09AM 57.6730 -12.7690 292° West 474 545 37,000  Level FlightAware
09:09AM 57.6960 -12.8830 291° West 474 545 37,000  Level FlightAware
09:10AM 57.7220 -13.0100 291° West 474 545 37,000  Level FlightAware
09:11AM 57.7530 -13.1600 291° West 474 545 37,000  Level FlightAware
09:11AM 57.7840 -13.3130 291° West 474 545 37,000  Level FlightAware
09:12AM 57.8080 -13.4310 291° West 474 545 37,000  Level FlightAware
09:13AM 57.8400 -13.5880 291° West 474 545 37,000  Level FlightAware
09:13AM 57.8640 -13.7050 291° West 474 545 37,000  Level FlightAware
09:14AM 57.8970 -13.8690 291° West 474 545 37,000  Level FlightAware
09:15AM 57.9240 -14.0000 291° West 474 545 37,000  Level FlightAware
09:16AM 57.9490 -14.1210 291° West 474 545 37,000  Level FlightAware
09:16AM 57.9810 -14.2790 291° West 474 545 37,000  Level FlightAware
09:17AM 58.0040 -14.3910 291° West 474 545 37,000  Level FlightAware
09:18AM 58.0340 -14.5420 291° West 474 545 37,000  Level FlightAware
09:20AM 58.0872 -14.9602 284° West  Level Estimated
09:21AM 58.1154 -15.1867 283° West  Level Estimated
09:22AM 58.1432 -15.4136 283° West  Level Estimated
09:23AM 58.1895 -15.6360 292° West  Level FlightAware Approximate
09:24AM 58.2355 -15.8589 291° West  Level FlightAware Approximate
09:25AM 58.2810 -16.0823 291° West  Level FlightAware Approximate
09:26AM 58.3262 -16.3064 291° West  Level FlightAware Approximate
09:27AM 58.3710 -16.5310 291° West  Level FlightAware Approximate
09:28AM 58.4154 -16.7562 291° West  Level FlightAware Approximate
09:29AM 58.4594 -16.9820 291° West  Level FlightAware Approximate
09:30AM 58.5030 -17.2083 290° West  Level FlightAware Approximate
09:31AM 58.5462 -17.4351 290° West  Level FlightAware Approximate
09:32AM 58.5890 -17.6626 290° West  Level FlightAware Approximate
09:33AM 58.6314 -17.8906 290° West  Level FlightAware Approximate
09:34AM 58.6734 -18.1191 290° West  Level FlightAware Approximate
09:35AM 58.7149 -18.3482 289° West  Level FlightAware Approximate
09:36AM 58.7561 -18.5778 289° West  Level FlightAware Approximate
09:37AM 58.7969 -18.8080 289° West  Level FlightAware Approximate
09:38AM 58.8372 -19.0387 289° West  Level FlightAware Approximate
09:39AM 58.8772 -19.2699 289° West  Level FlightAware Approximate
09:39AM 59.0000 -20.0000 285° West 465 535 37,000  Level ETMS Enhanced Traffic Management System
09:39AM 59.0000 -20.0000 285° West 465 535 37,000  Level ETMS Enhanced Traffic Management System
09:40AM 58.9167 -19.5017 288° West  Level FlightAware Approximate
09:41AM 58.9558 -19.7340 288° West  Level FlightAware Approximate
09:42AM 58.9945 -19.9669 288° West  Level FlightAware Approximate
09:43AM 59.0287 -20.2046 285° West  Level FlightAware Approximate
09:44AM 59.0615 -20.4413 285° West  Level FlightAware Approximate
09:45AM 59.1981 -21.4593 284° West 465 535 37,000  Level FlightAware Transoceanic
09:46AM 59.2295 -21.7041 284° West 465 535 37,000  Level FlightAware Transoceanic
09:47AM 59.2604 -21.9494 284° West 465 535 37,000  Level FlightAware Transoceanic
09:48AM 59.2909 -22.1951 284° West 465 535 37,000  Level FlightAware Transoceanic
09:49AM 59.3209 -22.4413 283° West 465 535 37,000  Level FlightAware Transoceanic
09:50AM 59.3505 -22.6879 283° West 465 535 37,000  Level FlightAware Transoceanic
09:51AM 59.3796 -22.9349 283° West 465 535 37,000  Level FlightAware Transoceanic
09:52AM 59.4082 -23.1824 283° West 465 535 37,000  Level FlightAware Transoceanic
09:53AM 59.4364 -23.4302 282° West 465 535 37,000  Level FlightAware Transoceanic
09:54AM 59.4641 -23.6785 282° West 465 535 37,000  Level FlightAware Transoceanic
09:55AM 59.4913 -23.9271 282° West 465 535 37,000  Level FlightAware Transoceanic
09:56AM 59.5180 -24.1762 282° West 465 535 37,000  Level FlightAware Transoceanic
09:57AM 59.5443 -24.4257 282° West 465 535 37,000  Level FlightAware Transoceanic
09:58AM 59.5701 -24.6755 281° West 465 535 37,000  Level FlightAware Transoceanic
09:59AM 59.5954 -24.9257 281° West 465 535 37,000  Level FlightAware Transoceanic
10:00AM 59.6203 -25.1763 281° West 465 535 37,000  Level FlightAware Transoceanic
10:01AM 59.6446 -25.4273 281° West 465 535 37,000  Level FlightAware Transoceanic
10:02AM 59.6685 -25.6786 281° West 465 535 37,000  Level FlightAware Transoceanic
10:03AM 59.6919 -25.9303 280° West 465 535 37,000  Level FlightAware Transoceanic
10:04AM 59.7148 -26.1823 280° West 465 535 37,000  Level FlightAware Transoceanic
10:05AM 59.7373 -26.4347 280° West 465 535 37,000  Level FlightAware Transoceanic
10:06AM 59.7592 -26.6874 280° West 465 535 37,000  Level FlightAware Transoceanic
10:07AM 59.7807 -26.9404 279° West 465 535 37,000  Level FlightAware Transoceanic
10:08AM 59.8016 -27.1938 279° West 465 535 37,000  Level FlightAware Transoceanic
10:09AM 59.8221 -27.4475 279° West 465 535 37,000  Level FlightAware Transoceanic
10:10AM 59.8421 -27.7015 279° West 465 535 37,000  Level FlightAware Transoceanic
10:11AM 59.8616 -27.9557 279° West 465 535 37,000  Level FlightAware Transoceanic
10:12AM 59.8807 -28.2103 278° West 465 535 37,000  Level FlightAware Transoceanic
10:13AM 59.8992 -28.4652 278° West 465 535 37,000  Level FlightAware Transoceanic
10:14AM 59.9172 -28.7203 278° West 465 535 37,000  Level FlightAware Transoceanic
10:15AM 59.9348 -28.9757 278° West 465 535 37,000  Level FlightAware Transoceanic
10:16AM 59.9518 -29.2314 277° West 465 535 37,000  Level FlightAware Transoceanic
10:17AM 59.9684 -29.4874 277° West 465 535 37,000  Level FlightAware Transoceanic
10:18AM 59.9844 -29.7436 277° West 465 535 37,000  Level FlightAware Transoceanic
10:19AM 59.9996 -29.9938 277° West  Level FlightAware Approximate
10:20AM 60.0144 -30.2443 277° West  Level FlightAware Approximate
10:21AM 60.0088 -30.2391 274° West  Level FlightAware Approximate
10:22AM 60.0177 -30.4908 274° West  Level FlightAware Approximate
10:23AM 60.0260 -30.7426 274° West  Level FlightAware Approximate
10:24AM 60.0338 -30.9911 274° West  Level FlightAware Approximate
10:25AM 60.0411 -31.2398 273° West  Level FlightAware Approximate
10:26AM 60.0479 -31.4885 273° West  Level FlightAware Approximate
10:27AM 60.0543 -31.7374 273° West  Level FlightAware Approximate
10:28AM 60.0602 -31.9863 273° West  Level FlightAware Approximate
10:29AM 60.0657 -32.2354 273° West  Level FlightAware Approximate
10:30AM 60.0706 -32.4845 272° West  Level FlightAware Approximate
10:31AM 60.0751 -32.7337 272° West  Level FlightAware Approximate
10:32AM 60.0792 -32.9829 272° West  Level FlightAware Approximate
10:33AM 60.0827 -33.2322 272° West  Level FlightAware Approximate
10:34AM 60.0858 -33.4815 272° West  Level FlightAware Approximate
10:35AM 60.0884 -33.7309 271° West  Level FlightAware Approximate
10:36AM 60.0906 -33.9804 271° West  Level FlightAware Approximate
10:37AM 60.0923 -34.2298 271° West  Level FlightAware Approximate
10:38AM 60.0935 -34.4793 271° West  Level FlightAware Approximate
10:39AM 60.0942 -34.7288 270° West  Level FlightAware Approximate
10:40AM 60.0945 -34.9783 270° West  Level FlightAware Approximate
10:41AM 60.0943 -35.2278 270° West  Level FlightAware Approximate
10:42AM 60.0937 -35.4773 270° West  Level FlightAware Approximate
10:43AM 60.0925 -35.7268 270° West  Level FlightAware Approximate
10:44AM 60.0909 -35.9763 269° West  Level FlightAware Approximate
10:44AM 60.1000 -35.5000 268° West 470 541 37,000  Level Gander Center
10:45AM 60.0888 -36.2257 269° West  Level FlightAware Approximate
10:45AM 60.1000 -35.7500 270° West 470 541 37,000  Level Gander Center
10:46AM 60.0863 -36.4751 269° West  Level FlightAware Approximate
10:46AM 60.1000 -36.0333 270° West 480 552 37,000  Level Gander Center
10:47AM 60.0833 -36.7245 269° West  Level FlightAware Approximate
10:47AM 60.1000 -36.2833 270° West 480 552 37,000  Level Gander Center
10:48AM 60.0798 -36.9738 269° West  Level FlightAware Approximate
10:48AM 60.0833 -36.5333 262° West 480 552 37,000  Level Gander Center
10:49AM 60.0759 -37.2231 268° West  Level FlightAware Approximate
10:49AM 60.0833 -36.8167 270° West 480 552 37,000  Level Gander Center
10:50AM 60.0833 -37.0667 270° West 480 552 37,000  Level Gander Center
10:51AM 60.0833 -37.3333 270° West 470 541 37,000  Level Gander Center
10:52AM 60.0667 -37.5833 262° West 470 541 37,000  Level Gander Center
10:53AM 60.0667 -37.8333 270° West 470 541 37,000  Level Gander Center
10:54AM 60.0500 -38.0833 263° West 470 541 37,000  Level Gander Center
10:55AM 60.0667 -38.3667 277° West 470 541 37,000  Level Gander Center
10:56AM 60.0667 -38.6167 270° West 470 541 37,000  Level Gander Center
10:57AM 60.0500 -38.8833 263° West 480 552 37,000  Level Gander Center
10:58AM 60.0500 -39.1333 270° West 480 552 37,000  Level Gander Center
10:59AM 60.0333 -39.3833 263° West 480 552 37,000  Level Gander Center
11:00AM 60.0333 -39.6667 270° West 480 552 37,000  Level Gander Center
11:01AM 60.0167 -39.9167 263° West 480 552 37,000  Level Gander Center
11:02AM 60.0167 -40.2000 270° West 490 564 37,000  Level Gander Center
11:03AM 60.0333 -40.4667 277° West 490 564 37,000  Level Gander Center
11:04AM 60.0333 -40.7333 270° West 490 564 37,000  Level Gander Center
11:05AM 60.0500 -41.0000 277° West 490 564 37,000  Level Gander Center
11:06AM 60.0500 -41.2833 270° West 490 564 37,000  Level Gander Center
11:07AM 60.0833 -41.5333 285° West 490 564 37,000  Level Gander Center
11:08AM 60.0833 -41.8167 270° West 490 564 37,000  Level Gander Center
11:09AM 60.0833 -42.0833 270° West 490 564 37,000  Level Gander Center
11:10AM 60.0833 -42.3500 270° West 490 564 37,000  Level Gander Center
11:11AM 60.1000 -42.6333 277° West 490 564 37,000  Level Gander Center
11:12AM 60.1000 -42.9000 270° West 490 564 37,000  Level Gander Center
11:13AM 60.1000 -43.1500 270° West 490 564 37,000  Level Gander Center
11:14AM 60.1000 -43.4167 270° West 490 564 37,000  Level Gander Center
11:15AM 60.1000 -43.6833 270° West 490 564 37,000  Level Gander Center
11:16AM 60.1167 -43.9500 277° West 490 564 37,000  Level Gander Center
11:17AM 60.1167 -44.2667 270° West 500 575 37,000  Level Gander Center
11:18AM 60.1167 -44.5333 270° West 500 575 37,000  Level Gander Center
11:19AM 60.1167 -44.8000 270° West 500 575 37,000  Level Gander Center
11:20AM 60.1167 -45.0833 270° West 500 575 37,000  Level Gander Center
11:21AM 60.1167 -45.3500 270° West 500 575 37,000  Level Gander Center
11:22AM 60.1167 -45.6333 270° West 510 587 37,000  Level Gander Center
11:23AM 60.1167 -45.9333 270° West 510 587 37,000  Level Gander Center
11:24AM 60.1167 -46.1667 270° West 510 587 37,000  Level Gander Center
11:25AM 60.1000 -46.4500 263° West 510 587 37,000  Level Gander Center
11:26AM 60.1000 -46.7500 270° West 510 587 37,000  Level Gander Center
11:27AM 60.1000 -47.0333 270° West 510 587 37,000  Level Gander Center
11:28AM 60.1000 -47.3000 270° West 510 587 37,000  Level Gander Center
11:29AM 60.0833 -47.6000 264° West 510 587 37,000  Level Gander Center
11:30AM 60.0833 -47.8833 270° West 510 587 37,000  Level Gander Center
11:31AM 60.0833 -48.1500 270° West 500 575 37,000  Level Gander Center
11:32AM 60.0667 -48.4333 263° West 500 575 37,000  Level Gander Center
11:33AM 60.0667 -48.7000 270° West 500 575 37,000  Level Gander Center
11:34AM 60.0500 -48.9667 263° West 500 575 37,000  Level Gander Center
11:35AM 60.0500 -49.2500 270° West 500 575 37,000  Level Gander Center
11:36AM 60.0333 -49.5500 264° West 500 575 37,000  Level Gander Center
11:37AM 60.0333 -49.8333 270° West 500 575 37,000  Level Gander Center
11:38AM 60.0167 -50.1000 263° West 500 575 37,000  Level Gander Center
11:39AM 60.0000 -50.3667 263° West 510 587 37,000  Level Gander Center
11:40AM 59.9667 -50.6500 257° West 510 587 37,000  Level Gander Center
11:41AM 59.9667 -50.9167 270° West 510 587 37,000  Level Gander Center
11:42AM 59.9333 -51.2000 257° West 510 587 37,000  Level Gander Center
11:43AM 59.9167 -51.5000 264° West 520 598 37,000  Level Gander Center
11:44AM 59.9000 -51.7667 263° West 520 598 37,000  Level Gander Center
11:45AM 59.8833 -52.0833 264° West 530 610 37,000  Level Gander Center
11:46AM 59.8667 -52.3500 263° West 530 610 37,000  Level Gander Center
11:47AM 59.8333 -52.6667 258° West 530 610 37,000  Level Gander Center
11:48AM 59.8167 -52.9333 263° West 530 610 37,000  Level Gander Center
11:49AM 59.7833 -53.2333 258° West 530 610 37,000  Level Gander Center
11:50AM 59.7667 -53.5000 263° West 530 610 37,000  Level Gander Center
11:51AM 59.7333 -53.8167 258° West 530 610 37,000  Level Gander Center
11:52AM 59.7167 -54.0833 263° West 530 610 37,000  Level Gander Center
11:53AM 59.6833 -54.3500 256° West 530 610 37,000  Level Gander Center
11:54AM 59.6500 -54.6500 258° West 530 610 37,000  Level Gander Center
11:55AM 59.6333 -54.9167 263° West 520 598 37,000  Level Gander Center
11:56AM 59.6000 -55.2000 257° West 520 598 37,000  Level Gander Center
11:57AM 59.5833 -55.5000 264° West 530 610 37,000  Level Gander Center
11:58AM 59.5333 -55.7667 250° West 520 598 37,000  Level Gander Center
11:59AM 59.5167 -56.0667 264° West 520 598 37,000  Level Gander Center
12:00PM 59.4833 -56.3333 256° West 520 598 37,000  Level Gander Center
12:01PM 59.4500 -56.6000 256° West 520 598 37,000  Level Gander Center
12:02PM 59.4167 -56.9000 258° West 520 598 37,000  Level Gander Center
12:03PM 59.3833 -57.1667 256° West 520 598 37,000  Level Gander Center
12:04PM 59.3667 -57.4333 263° West 520 598 37,000  Level Gander Center
12:05PM 59.3167 -57.7333 252° West 520 598 37,000  Level Gander Center
12:06PM 59.3000 -57.9833 263° West 520 598 37,000  Level Gander Center
12:07PM 59.2500 -58.2500 250° West 510 587 37,000  Level Gander Center
12:08PM 59.2167 -58.5167 256° West 510 587 37,000  Level Gander Center
12:09PM 59.1833 -58.7833 256° West 510 587 37,000  Level Gander Center
12:10PM 59.1500 -59.0667 257° West 510 587 37,000  Level Gander Center
12:11PM 59.1167 -59.3333 256° West 510 587 37,000  Level Gander Center
12:12PM 59.0833 -59.6000 256° West 510 587 37,000  Level Gander Center
12:13PM 59.0500 -59.8500 256° West 510 587 37,000  Level Gander Center
12:14PM 58.9833 -60.1167 244° Southwest 510 587 37,000  Level Gander Center
12:15PM 58.9167 -60.3500 241° Southwest 510 587 37,000  Level Gander Center
12:16PM 58.8500 -60.5667 239° Southwest 510 587 37,000  Level Gander Center
12:17PM 58.7833 -60.8000 241° Southwest 500 575 37,000  Level Gander Center
12:18PM 58.7167 -61.0333 241° Southwest 510 587 37,000  Level Gander Center
12:19PM 58.6333 -61.2833 237° Southwest 500 575 37,000  Level Gander Center
12:20PM 58.5667 -61.5000 240° Southwest 510 587 37,000  Level Gander Center
12:21PM 58.5000 -61.7333 241° Southwest 500 575 37,000  Level Gander Center
12:22PM 58.4167 -61.9833 238° Southwest 500 575 37,000  Level Gander Center
12:23PM 58.3500 -62.2000 240° Southwest 510 587 37,000  Level Gander Center
12:25PM 58.2167 -62.5500 234° Southwest 500 575 37,000  Level Montreal Center
12:26PM 58.1500 -62.7667 240° Southwest 510 587 37,000  Level Montreal Center
12:27PM 58.0833 -63.0000 242° Southwest 500 575 37,000  Level Montreal Center
12:28PM 58.0000 -63.2167 234° Southwest 510 587 37,000  Level Montreal Center
12:29PM 57.9167 -63.4333 234° Southwest 510 587 37,000  Level Montreal Center
12:30PM 57.8500 -63.6833 243° Southwest 510 587 37,000  Level Montreal Center
12:31PM 57.7833 -63.9000 240° Southwest 510 587 37,000  Level Montreal Center
12:32PM 57.7167 -64.1167 240° Southwest 500 575 37,000  Level Montreal Center
12:33PM 57.6333 -64.3333 234° Southwest 480 552 37,000  Level Montreal Center
12:34PM 57.5667 -64.5333 238° Southwest 490 564 37,000  Level Montreal Center
12:35PM 57.4833 -64.7500 234° Southwest 480 552 37,000  Level Montreal Center
12:36PM 57.4167 -64.9667 240° Southwest 480 552 37,100 300 Climbing Montreal Center
12:37PM 57.3333 -65.1833 235° Southwest 480 552 37,600 300 Climbing Montreal Center
12:38PM 57.2667 -65.3833 238° Southwest 480 552 37,800 180 Climbing Montreal Center
12:39PM 57.1833 -65.6000 235° Southwest 490 564 38,000 60 Climbing Montreal Center
12:40PM 57.1167 -65.8000 239° Southwest 500 575 38,000  Level Montreal Center
12:41PM 57.0167 -66.0167 230° Southwest 500 575 38,000  Level Montreal Center
12:42PM 56.9333 -66.2167 233° Southwest 510 587 38,000  Level Montreal Center
12:43PM 56.8667 -66.4500 242° Southwest 510 587 38,000  Level Montreal Center
12:44PM 56.7833 -66.6667 235° Southwest 510 587 38,000  Level Montreal Center
12:45PM 56.7000 -66.8667 233° Southwest 500 575 38,000  Level Montreal Center
12:46PM 56.6333 -67.0667 239° Southwest 500 575 38,000  Level Montreal Center
12:47PM 56.5667 -67.3000 243° Southwest 500 575 38,000  Level Montreal Center
12:48PM 56.4833 -67.5000 233° Southwest 490 564 38,000  Level Montreal Center
12:49PM 56.4167 -67.7000 239° Southwest 490 564 38,000  Level Montreal Center
12:50PM 56.3333 -67.9333 237° Southwest 490 564 38,000  Level Montreal Center
12:51PM 56.2667 -68.1333 239° Southwest 480 552 38,000  Level Montreal Center
12:52PM 56.1833 -68.3667 237° Southwest 490 564 38,000  Level Montreal Center
12:53PM 56.1167 -68.5500 237° Southwest 480 552 38,000  Level Montreal Center
12:54PM 56.0500 -68.7500 239° Southwest 490 564 38,000  Level Montreal Center
12:55PM 55.9667 -68.9500 233° Southwest 490 564 38,000  Level Montreal Center
12:56PM 55.8833 -69.1667 236° Southwest 490 564 38,000  Level Montreal Center
12:57PM 55.8000 -69.3667 234° Southwest 490 564 38,000  Level Montreal Center
12:58PM 55.7333 -69.5667 239° Southwest 490 564 38,000  Level Montreal Center
12:59PM 55.6500 -69.7500 231° Southwest 490 564 38,000  Level Montreal Center
01:00PM 55.5833 -69.9333 237° Southwest 480 552 38,000  Level Montreal Center
01:01PM 55.5167 -70.1667 243° Southwest 480 552 38,000  Level Montreal Center
01:02PM 55.4333 -70.3500 231° Southwest 490 564 38,000  Level Montreal Center
01:03PM 55.3500 -70.5333 231° Southwest 480 552 38,000  Level Montreal Center
01:04PM 55.2667 -70.7667 238° Southwest 480 552 38,000  Level Montreal Center
01:05PM 55.1833 -70.9500 232° Southwest 480 552 38,000  Level Montreal Center
01:06PM 55.1167 -71.1333 238° Southwest 470 541 38,000  Level Montreal Center
01:07PM 55.0333 -71.3167 232° Southwest 480 552 38,000  Level Montreal Center
01:08PM 54.9667 -71.5000 238° Southwest 480 552 38,000  Level Montreal Center
01:09PM 54.8833 -71.7167 236° Southwest 480 552 38,000  Level Montreal Center
01:10PM 54.8000 -71.9000 232° Southwest 480 552 38,000  Level Montreal Center
01:11PM 54.7333 -72.0833 238° Southwest 480 552 38,000  Level Montreal Center
01:12PM 54.6500 -72.2667 232° Southwest 480 552 38,000  Level Montreal Center
01:13PM 54.5667 -72.4500 232° Southwest 480 552 38,000  Level Montreal Center
01:14PM 54.4833 -72.6333 232° Southwest 480 552 38,000  Level Montreal Center
01:15PM 54.4167 -72.8167 238° Southwest 480 552 38,000  Level Montreal Center
01:16PM 54.3333 -72.9833 229° Southwest 480 552 38,000  Level Montreal Center
01:17PM 54.2500 -73.1667 232° Southwest 480 552 38,000  Level Montreal Center
01:18PM 54.1667 -73.3667 235° Southwest 480 552 38,000  Level Montreal Center
01:19PM 54.0833 -73.5500 232° Southwest 480 552 38,000  Level Montreal Center
01:20PM 54.0000 -73.7333 232° Southwest 480 552 38,000  Level Montreal Center
01:21PM 53.9167 -73.9000 230° Southwest 470 541 38,000  Level Montreal Center
01:22PM 53.8500 -74.0833 238° Southwest 470 541 38,000  Level Montreal Center
01:23PM 53.7667 -74.2500 230° Southwest 470 541 38,000  Level Montreal Center
01:24PM 53.6833 -74.4500 235° Southwest 470 541 38,000  Level Montreal Center
01:25PM 53.6000 -74.6333 233° Southwest 470 541 38,000  Level Montreal Center
01:26PM 53.5167 -74.8000 230° Southwest 470 541 38,000  Level Montreal Center
01:27PM 53.4167 -74.9667 225° Southwest 480 552 38,000  Level Montreal Center
01:28PM 53.3333 -75.1500 233° Southwest 470 541 38,000  Level Montreal Center
01:29PM 53.2500 -75.3167 230° Southwest 470 541 38,000  Level Montreal Center
01:30PM 53.1833 -75.4833 236° Southwest 470 541 38,000  Level Montreal Center
01:31PM 53.1000 -75.6500 230° Southwest 470 541 38,000  Level Montreal Center
01:32PM 53.0167 -75.8167 230° Southwest 470 541 38,000  Level Montreal Center
01:33PM 52.9333 -76.0000 233° Southwest 470 541 38,000  Level Montreal Center
01:34PM 52.8500 -76.1667 230° Southwest 470 541 38,000  Level Montreal Center
01:35PM 52.7500 -76.3333 225° Southwest 470 541 38,000  Level Montreal Center
01:36PM 52.6833 -76.5000 237° Southwest 470 541 38,000  Level Montreal Center
01:37PM 52.6000 -76.6500 228° Southwest 470 541 38,000  Level Montreal Center
01:38PM 52.5167 -76.8167 231° Southwest 470 541 38,000  Level Montreal Center
01:39PM 52.4333 -76.9833 231° Southwest 470 541 38,000  Level Montreal Center
01:40PM 52.3333 -77.1500 226° Southwest 470 541 38,000  Level Montreal Center
01:41PM 52.2500 -77.3167 231° Southwest 460 529 38,000  Level Montreal Center
01:42PM 52.1667 -77.4667 228° Southwest 460 529 38,000  Level Montreal Center
01:43PM 52.0833 -77.6333 231° Southwest 460 529 38,000  Level Montreal Center
01:44PM 52.0167 -77.8000 237° Southwest 470 541 38,000  Level Montreal Center
01:45PM 51.9333 -77.9500 228° Southwest 460 529 38,000  Level Montreal Center
01:46PM 51.8333 -78.1167 226° Southwest 460 529 38,000  Level Montreal Center
01:47PM 51.7500 -78.2833 231° Southwest 460 529 38,000  Level Montreal Center
01:48PM 51.6667 -78.4333 228° Southwest 450 518 38,000  Level Montreal Center
01:49PM 51.5833 -78.6000 231° Southwest 450 518 38,000  Level Montreal Center
01:50PM 51.4833 -78.7500 223° Southwest 460 529 38,000  Level Montreal Center
01:51PM 51.4167 -78.9000 235° Southwest 450 518 38,000  Level Montreal Center
01:52PM 51.3333 -79.0333 225° Southwest 450 518 38,000  Level Montreal Center
01:53PM 51.2500 -79.1833 228° Southwest 450 518 38,000  Level Montreal Center
01:54PM 51.1500 -79.3500 226° Southwest 450 518 38,000  Level Montreal Center
01:55PM 51.0833 -79.5000 235° Southwest 450 518 38,000  Level Montreal Center
01:56PM 51.0000 -79.6500 229° Southwest 450 518 38,000  Level Montreal Center
01:57PM 50.9000 -79.8167 226° Southwest 450 518 38,000  Level Montreal Center
01:58PM 50.8167 -79.9333 222° Southwest 450 518 38,000  Level Montreal Center
01:59PM 50.7333 -80.0667 225° Southwest 450 518 38,000  Level Montreal Center
02:00PM 50.6167 -80.1833 212° Southwest 450 518 38,000  Level Montreal Center
02:01PM 50.5167 -80.3000 217° Southwest 450 518 38,000  Level Montreal Center
02:02PM 50.4167 -80.4000 213° Southwest 450 518 38,000  Level Montreal Center
02:03PM 50.3000 -80.5167 213° Southwest 450 518 38,000  Level Montreal Center
02:04PM 50.2000 -80.6500 221° Southwest 450 518 38,000  Level Montreal Center
02:05PM 50.1000 -80.7333 208° Southwest 450 518 38,000  Level Montreal Center
02:06PM 49.9833 -80.8667 216° Southwest 450 518 38,000  Level Montreal Center
02:07PM 49.8833 -80.9833 217° Southwest 450 518 38,000  Level Montreal Center
02:08PM 49.8000 -81.0667 213° Southwest 450 518 38,000  Level Montreal Center
02:09PM 49.6667 -81.2000 213° Southwest 450 518 38,000  Level Montreal Center
02:10PM 49.5833 -81.2833 213° Southwest 450 518 38,000  Level Montreal Center
02:11PM 49.4667 -81.4000 213° Southwest 450 518 38,000  Level Montreal Center
02:12PM 49.3667 -81.5167 217° Southwest 450 518 38,000  Level Montreal Center
02:13PM 49.2667 -81.6167 213° Southwest 450 518 38,000  Level Montreal Center
02:14PM 49.1500 -81.7333 213° Southwest 440 506 38,000  Level Montreal Center
02:15PM 49.0500 -81.8167 209° Southwest 440 506 38,000  Level Montreal Center
02:16PM 48.9667 -81.9333 223° Southwest 440 506 38,000  Level Montreal Center
02:17PM 48.8500 -82.0167 205° Southwest 440 506 38,000  Level Montreal Center
02:18PM 48.7500 -82.1333 218° Southwest 440 506 38,000  Level Montreal Center
02:19PM 48.6333 -82.2333 210° Southwest 440 506 38,000  Level Montreal Center
02:20PM 48.5333 -82.3333 214° Southwest 440 506 38,000  Level Montreal Center
02:21PM 48.4500 -82.4333 219° Southwest 440 506 38,000  Level Montreal Center
02:22PM 48.3333 -82.5500 214° Southwest 440 506 38,000  Level Montreal Center
02:23PM 48.2333 -82.6500 214° Southwest 440 506 38,000  Level Montreal Center
02:24PM 48.1167 -82.7500 210° Southwest 440 506 38,000  Level Montreal Center
02:25PM 48.0167 -82.8500 214° Southwest 440 506 38,000  Level Montreal Center
02:26PM 47.9000 -82.9333 206° Southwest 440 506 38,000  Level Montreal Center
02:27PM 47.8000 -83.0167 209° Southwest 440 506 38,000  Level Montreal Center
02:28PM 47.7000 -83.0833 204° Southwest 440 506 38,000  Level Montreal Center
02:29PM 47.5667 -83.1667 203° Southwest 440 506 38,000  Level Montreal Center
02:30PM 47.4667 -83.2500 209° Southwest 440 506 38,000  Level Montreal Center
02:31PM 47.3667 -83.3167 204° Southwest 440 506 38,000  Level Montreal Center
02:32PM 47.2500 -83.4000 206° Southwest 440 506 38,000  Level Montreal Center
02:33PM 47.1500 -83.4833 210° Southwest 430 495 38,000  Level Montreal Center
02:34PM 47.0167 -83.5500 199° South 430 495 38,000  Level Montreal Center
02:35PM 46.9167 -83.6167 204° Southwest 430 495 38,000  Level Montreal Center
02:36PM 46.8167 -83.7000 210° Southwest 430 495 38,000  Level Montreal Center
02:37PM 46.7000 -83.7833 206° Southwest 430 495 38,000  Level Montreal Center
02:38PM 46.5667 -83.8333 194° South 430 495 38,000  Level Toronto Center
02:39PM 46.4667 -83.9000 205° Southwest 430 495 38,000  Level Toronto Center
02:45PM 45.8810 -84.3090 205° Southwest 418 481 38,000  Level FlightAware
02:45PM 45.8210 -84.3470 204° Southwest 418 481 38,000  Level FlightAware
02:46PM 45.7270 -84.4070 204° Southwest 418 481 38,000  Level FlightAware
02:47PM 45.6150 -84.4830 205° Southwest 421 484 38,000  Level FlightAware
02:48PM 45.5540 -84.5210 204° Southwest 421 484 38,000  Level FlightAware
02:49PM 45.4570 -84.5860 205° Southwest 424 488 38,000  Level FlightAware
02:49PM 45.3820 -84.6340 204° Southwest 424 488 38,000  Level FlightAware
02:50PM 45.3190 -84.6750 205° Southwest 425 489 38,000  Level FlightAware
02:51PM 45.2400 -84.7210 202° Southwest 426 490 38,000  Level FlightAware
02:51PM 45.2030 -84.7420 202° Southwest 426 490 38,000  Level FlightAware
02:52PM 45.1490 -84.7730 202° Southwest 426 490 38,000  Level FlightAware
02:53PM 45.0190 -84.7870 184° South 431 496 38,000  Level FlightAware
02:53PM 44.9310 -84.8160 193° South 431 496 38,000  Level FlightAware
02:54PM 44.8490 -84.8430 193° South 431 496 38,000  Level FlightAware
02:55PM 44.7760 -84.8670 193° South 430 495 38,000  Level FlightAware
02:55PM 44.6860 -84.8970 193° South 431 496 38,000  Level FlightAware
02:56PM 44.5820 -84.9310 193° South 431 496 38,000 -120 Level FlightAware
02:57PM 44.4910 -84.9600 193° South 434 499 37,800 -360 Descending FlightAware
02:58PM 44.4180 -84.9840 193° South 434 499 37,500 -480 Descending FlightAware
02:58PM 44.3290 -85.0130 193° South 429 494 37,200 -420 Descending FlightAware
02:59PM 44.2530 -85.0370 193° South 425 489 36,900 -660 Descending FlightAware
03:00PM 44.1670 -85.0650 193° South 424 488 36,300 -900 Descending FlightAware
03:01PM 44.0860 -85.0910 193° South 424 488 35,600 -1,020 Descending FlightAware
03:01PM 44.0070 -85.1160 193° South 418 481 34,900 -1,140 Descending FlightAware
03:02PM 43.9310 -85.1400 193° South 416 479 34,100 -1,200 Descending FlightAware
03:03PM 43.8530 -85.1650 193° South 418 481 33,300 -1,140 Descending FlightAware
03:03PM 43.7730 -85.1900 193° South 423 487 32,600 -960 Descending FlightAware
03:04PM 43.6920 -85.2160 193° South 432 497 32,000 -540 Descending FlightAware
03:05PM 43.6350 -85.2340 193° South 419 482 32,000  Level FlightAware
03:05PM 43.5510 -85.2600 193° South 421 484 32,000  Level FlightAware
03:06PM 43.4760 -85.2840 193° South 426 490 32,000  Level FlightAware
03:07PM 43.3730 -85.3370 201° Southwest 424 488 32,000  Level FlightAware
03:08PM 43.3170 -85.4050 221° Southwest 425 489 32,000  Level FlightAware
03:08PM 43.2500 -85.4930 224° Southwest 427 491 32,000  Level FlightAware
03:09PM 43.1980 -85.5610 224° Southwest 418 481 32,000 -540 Level FlightAware
03:10PM 43.1370 -85.6400 223° Southwest 412 474 31,300 -1,200 Descending FlightAware
03:10PM 43.0760 -85.7190 223° Southwest 413 475 30,300 -1,080 Descending FlightAware
03:11PM 43.0320 -85.7760 223° Southwest 413 475 29,700 -1,200 Descending FlightAware
03:12PM 42.9760 -85.8480 223° Southwest 408 470 28,500 -2,460 Descending FlightAware
03:13PM 42.8850 -85.9660 224° Southwest 401 461 25,900 -2,760 Descending FlightAware
03:13PM 42.8310 -86.0340 223° Southwest 398 458 24,500 -2,100 Descending FlightAware
03:14PM 42.7720 -86.1110 224° Southwest 393 452 23,000 -2,040 Descending FlightAware
03:15PM 42.7170 -86.1800 223° Southwest 384 442 21,600 -1,800 Descending FlightAware
03:16PM 42.6510 -86.2740 226° Southwest 379 436 20,100 -1,020 Descending FlightAware
03:16PM 42.6270 -86.3710 251° West 378 435 20,000 -120 Descending FlightAware
03:17PM 42.6110 -86.4550 256° West 379 436 20,000  Level FlightAware
03:18PM 42.5950 -86.5430 256° West 379 436 20,000 -720 Level FlightAware
03:18PM 42.5810 -86.6180 256° West 367 422 19,200 -1,620 Descending FlightAware
03:19PM 42.5610 -86.7200 255° West 355 409 17,900 -1,680 Descending FlightAware
03:20PM 42.5400 -86.8000 250° West 344 396 16,900 -1,560 Descending FlightAware
03:20PM 42.5190 -86.8780 250° West 338 389 15,900 -1,620 Descending FlightAware
03:21PM 42.4940 -86.9720 250° West 349 402 14,600 -1,680 Descending FlightAware
03:22PM 42.4690 -87.0630 250° West 351 404 13,400 -1,620 Descending FlightAware
03:22PM 42.4470 -87.1430 250° West 356 410 12,400 -1,620 Descending FlightAware
03:23PM 42.4220 -87.2340 250° West 360 414 11,200 -1,680 Descending FlightAware
03:24PM 42.3980 -87.3220 250° West 351 404 10,100 -900 Descending FlightAware
03:25PM 42.3740 -87.4080 249° West 348 400 10,000 -120 Descending FlightAware
03:25PM 42.3500 -87.4950 250° West 349 402 10,000  Level FlightAware
03:26PM 42.3150 -87.5590 234° Southwest 349 402 10,000  Level FlightAware
03:27PM 42.2560 -87.6230 219° Southwest 351 404 10,000  Level FlightAware
03:27PM 42.2010 -87.6790 217° Southwest 348 400 10,000  Level FlightAware
03:28PM 42.1550 -87.7280 218° Southwest 321 369 10,000 -360 Level FlightAware
03:29PM 42.1240 -87.7610 218° Southwest 307 353 9,600 -900 Descending FlightAware
03:29PM 42.0980 -87.7990 227° Southwest 298 343 9,200 -960 Descending FlightAware
03:29PM 42.0920 -87.8310 256° West 284 327 8,900 -1,260 Descending FlightAware
03:30PM 42.0910 -87.8810 268° West 282 325 8,200 -1,500 Descending FlightAware
03:30PM 42.0920 -87.9270 272° West 281 323 7,600 -1,320 Descending FlightAware
03:31PM 42.0920 -87.9720 270° West 279 321 7,100 -840 Descending FlightAware
03:31PM 42.0920 -88.0030 270° West 277 319 7,000 -180 Descending FlightAware
03:31PM 42.0920 -88.0470 270° West 265 305 7,000  Level FlightAware
03:32PM 42.0920 -88.0950 270° West 236 272 7,000  Level FlightAware
03:32PM 42.0920 -88.1330 270° West 208 239 7,000 -360 Level FlightAware
03:33PM 42.0910 -88.1660 268° West 194 223 6,700 -840 Descending FlightAware
03:33PM 42.0910 -88.2140 270° West 187 215 6,100 -960 Descending FlightAware
03:34PM 42.0910 -88.2420 270° West 185 213 5,700 -1,080 Descending FlightAware
03:34PM 42.0910 -88.2780 270° West 180 207 5,100 -960 Descending FlightAware
03:35PM 42.0910 -88.2940 270° West 183 211 5,000 -180 Descending FlightAware
03:35PM 42.0910 -88.3190 270° West 184 212 5,000  Level FlightAware
03:36PM 42.0750 -88.3640 244° Southwest 181 208 5,000  Level FlightAware
03:36PM 42.0670 -88.3640 180° South 183 211 5,000  Level FlightAware
03:36PM 42.0430 -88.3610 175° South 183 211 5,000  Level FlightAware
03:37PM 42.0270 -88.3590 175° South 183 211 5,000  Level FlightAware
03:37PM 42.0040 -88.3560 174° South 181 208 5,000  Level FlightAware
03:37PM 41.9950 -88.3530 166° South 182 209 5,000  Level FlightAware
03:38PM 41.9850 -88.3400 136° Southeast 185 213 5,000  Level FlightAware
03:38PM 41.9760 -88.3150 116° Southeast 186 214 5,000  Level FlightAware
03:38PM 41.9700 -88.2980 115° Southeast 188 216 5,000 -240 Level FlightAware
03:39PM 41.9680 -88.2850 102° East 189 217 4,900 -480 Descending FlightAware
03:39PM 41.9670 -88.2560 93° East 187 215 4,700 -540 Descending FlightAware
03:39PM 41.9680 -88.2160 88° East 185 213 4,400 -540 Descending FlightAware
03:40PM 41.9680 -88.1840 90° East 184 212 4,200 -480 Descending FlightAware
03:40PM 41.9680 -88.1520 90° East 180 207 4,000 -780 Descending FlightAware
03:41PM 41.9680 -88.1210 90° East 174 200 3,500 -1,020 Descending FlightAware
03:41PM 41.9680 -88.0980 90° East 166 191 3,100 -900 Descending FlightAware
03:42PM 41.9690 -88.0800 86° East 161 185 2,900 -900 Descending FlightAware
03:42PM 41.9690 -88.0420 90° East 162 186 2,300 -1,020 Descending FlightAware
03:42PM 41.9690 -88.0260 90° East 155 178 2,000 -840 Descending FlightAware
03:43PM 41.9690 -87.9990 90° East 143 165 1,700 -720 Descending FlightAware
03:43PM 41.9690 -87.9710 90° East 143 165 1,300 -780 Descending FlightAware
03:44PM 41.9690 -87.9350 90° East 142 163 800 -540 Descending FlightAware
03:45PM 41.9690 -87.9120 90° East 142 163 700 -240 Descending FlightAware
03:46PM 41.9700 -87.8890 87° East 26 30 -420 Descending FlightAware
03:47PM 41.9700 -87.8860 90° East 16 18  Level FlightAware
03:47PM 41.9710 -87.8840 56° Northeast 26 30  Level FlightAware